Time;durP1;ratioP1;P1;durP2;ratioP2;P2;SDS_P1;SDS_P2;PMS_P1;PMS_P2;Temp;Humidity;BMP_temperature;BMP_pressure;BME280_temperature;BME280_humidity;BME280_pressure;Samples;Min_cycle;Max_cycle;Signal;HPM_P1;HPM_P2
2022/02/10 00:21:45;;;;;;;;;;;3.00;91.20;;;;;;5031697;28;20327;-74
2022/02/10 00:35:09;;;;;;;;;;;2.90;91.20;;;;;;5032643;28;19919;-74
2022/02/10 00:37:51;;;;;;;;;;;2.90;91.10;;;;;;5031482;28;19909;-74
2022/02/10 00:40:20;;;;;;;;;;;3.00;91.00;;;;;;5031511;28;19914;-74
2022/02/10 00:42:46;;;;;;;;;;;3.00;90.90;;;;;;5032599;28;19909;-74
2022/02/10 00:45:12;;;;;;;;;;;3.00;90.80;;;;;;5031146;28;19909;-74
2022/02/10 00:47:59;;;;;;;;;;;3.00;90.70;;;;;;5032620;28;20353;-74
2022/02/10 00:50:27;;;;;;;;;;;2.80;91.00;;;;;;5034768;28;19916;-74
2022/02/10 00:55:48;;;;;;;;;;;2.70;91.30;;;;;;5019050;28;20020;-74
2022/02/10 00:58:22;;;;;;;;;;;2.60;92.10;;;;;;5031141;28;20345;-74
2022/02/10 01:14:31;;;;;;;;;;;2.50;92.00;;;;;;5030979;28;20008;-73
2022/02/10 01:30:16;;;;;;;;;;;2.80;90.30;;;;;;5030929;28;19956;-74
2022/02/10 01:32:44;;;;;;;;;;;2.80;90.10;;;;;;5030389;28;20369;-74
2022/02/10 01:35:14;;;;;;;;;;;2.90;89.90;;;;;;5030687;28;20443;-74
2022/02/10 01:37:40;;;;;;;;;;;2.90;89.30;;;;;;5031975;28;19909;-74
2022/02/10 01:40:16;;;;;;;;;;;3.00;89.40;;;;;;5032022;28;19909;-74
2022/02/10 02:04:10;;;;;;;;;;;2.80;88.70;;;;;;5035107;28;19910;-74
2022/02/10 02:06:43;;;;;;;;;;;2.80;89.10;;;;;;5035345;28;19909;-73
2022/02/10 02:09:11;;;;;;;;;;;2.70;89.40;;;;;;5035278;28;19955;-74
2022/02/10 02:11:40;;;;;;;;;;;2.50;90.20;;;;;;5034064;28;19913;-74
2022/02/10 02:14:06;;;;;;;;;;;2.40;90.00;;;;;;5035090;28;20387;-74
2022/02/10 02:16:32;;;;;;;;;;;2.20;90.30;;;;;;5035029;28;19964;-74
2022/02/10 02:18:58;;;;;;;;;;;2.10;90.50;;;;;;5035165;28;20056;-74
2022/02/10 02:21:24;;;;;;;;;;;2.30;90.70;;;;;;5035152;28;19909;-74
2022/02/10 02:23:50;;;;;;;;;;;2.40;90.20;;;;;;5035034;28;20373;-74
2022/02/10 02:26:21;;;;;;;;;;;2.50;90.20;;;;;;5033915;28;20000;-74
2022/02/10 02:28:52;;;;;;;;;;;2.60;90.00;;;;;;5033974;28;19909;-74
2022/02/10 02:31:20;;;;;;;;;;;2.50;90.00;;;;;;5033602;28;20385;-74
2022/02/10 02:34:15;;;;;;;;;;;2.40;90.30;;;;;;5033726;28;20380;-74
2022/02/10 02:37:18;;;;;;;;;;;2.50;90.10;;;;;;5034667;28;20308;-74
2022/02/10 02:40:22;;;;;;;;;;;2.50;89.50;;;;;;5034923;28;19916;-74
2022/02/10 03:10:05;;;;;;;;;;;2.60;88.50;;;;;;5034500;28;19956;-74
2022/02/10 03:12:31;;;;;;;;;;;2.70;88.40;;;;;;5016402;28;19916;-74
2022/02/10 03:14:59;;;;;;;;;;;2.80;88.30;;;;;;5031944;28;20292;-74
2022/02/10 03:20:15;;;;;;;;;;;2.80;87.50;;;;;;5034048;28;19909;-74
2022/02/10 03:59:49;;;;;;;;;;;2.70;86.80;;;;;;5033906;28;19909;-74
2022/02/10 04:01:47;;;;;;;;;;;2.80;85.30;;;;;;5033406;28;19917;-74
2022/02/10 04:04:29;;;;;;;;;;;2.70;85.00;;;;;;5033012;28;19909;-74
2022/02/10 04:12:22;;;;;;;;;;;2.30;87.00;;;;;;5031916;28;19913;-74
2022/02/10 04:14:56;;;;;;;;;;;2.30;88.60;;;;;;5032919;28;19913;-74
2022/02/10 04:20:33;;;;;;;;;;;2.40;87.40;;;;;;5031693;28;19909;-74
2022/02/10 04:39:21;;;;;;;;;;;2.30;86.40;;;;;;5032709;28;19909;-74
2022/02/10 04:59:57;;;;;;;;;;;1.80;88.70;;;;;;5031238;28;19909;-73
2022/02/10 05:07:59;;;;;;;;;;;2.00;87.40;;;;;;5032275;28;19916;-74
2022/02/10 05:16:26;;;;;;;;;;;2.00;86.60;;;;;;4970956;28;19914;-74
2022/02/10 05:19:47;;;;;;;;;;;2.00;86.50;;;;;;5007425;28;19911;-74
2022/02/10 05:34:53;;;;;;;;;;;2.10;85.40;;;;;;5032126;28;19913;-74
2022/02/10 05:37:22;;;;;;;;;;;2.30;85.40;;;;;;5031577;28;19967;-74
2022/02/10 05:39:50;;;;;;;;;;;2.20;84.60;;;;;;5036103;28;20369;-74
2022/02/10 05:50:53;;;;;;;;;;;2.20;85.50;;;;;;5035783;28;19986;-73
2022/02/10 06:01:02;;;;;;;;;;;2.40;83.50;;;;;;5035671;28;19952;-73
2022/02/10 07:48:42;;;;;;;;;;;3.80;89.60;;;;;;5053281;28;19913;-73
2022/02/10 09:03:22;;;;;;;;;;;7.70;60.60;;;;;;5057755;28;19909;-73
2022/02/10 09:16:52;;;;;;;;;;;8.10;61.00;;;;;;5066053;28;20448;-73
2022/02/10 10:00:14;;;;;;;;;;;10.40;57.20;;;;;;5066203;28;19931;-74
2022/02/10 10:03:05;;;;;;;;;;;10.90;56.10;;;;;;5060542;28;19909;-74
2022/02/10 10:05:34;;;;;;;;;;;11.60;55.10;;;;;;5059166;28;19910;-74
2022/02/10 10:08:25;;;;;;;;;;;12.10;52.80;;;;;;5056896;28;20003;-74
2022/02/10 10:11:25;;;;;;;;;;;12.30;51.30;;;;;;5056005;28;19955;-74
2022/02/10 10:50:52;;;;;;;;;;;17.10;43.70;;;;;;5070615;28;19999;-73
2022/02/10 10:53:31;;;;;;;;;;;17.10;43.10;;;;;;5059402;28;19909;-74
2022/02/10 11:05:17;;;;;;;;;;;18.50;41.90;;;;;;5058516;28;19916;-73
2022/02/10 11:38:04;;;;;;;;;;;19.80;39.00;;;;;;5056632;28;20325;-73
2022/02/10 11:40:36;;;;;;;;;;;19.40;39.40;;;;;;5062928;28;19913;-73
2022/02/10 11:43:06;;;;;;;;;;;20.20;39.60;;;;;;5052956;28;19931;-72
2022/02/10 12:36:38;;;;;;;;;;;19.40;39.30;;;;;;5067161;28;19948;-73
2022/02/10 13:23:25;;;;;;;;;;;18.00;39.80;;;;;;5056946;28;19920;-73
2022/02/10 13:48:43;;;;;;;;;;;16.60;43.80;;;;;;5060040;28;20104;-73
2022/02/10 14:25:45;;;;;;;;;;;13.40;49.80;;;;;;5060737;28;19909;-73
2022/02/10 14:28:11;;;;;;;;;;;13.30;49.90;;;;;;5032409;28;19916;-73
2022/02/10 14:30:38;;;;;;;;;;;13.10;50.60;;;;;;5070292;28;19908;-73
2022/02/10 14:33:04;;;;;;;;;;;13.00;51.20;;;;;;5055977;28;19908;-73
2022/02/10 14:38:46;;;;;;;;;;;12.80;51.30;;;;;;5037269;28;19944;-73
2022/02/10 15:21:21;;;;;;;;;;;12.80;52.40;;;;;;5066686;28;19958;-74
2022/02/10 15:53:29;;;;;;;;;;;12.20;53.10;;;;;;5065675;28;19913;-74
2022/02/10 16:13:46;;;;;;;;;;;12.00;54.40;;;;;;5072134;28;19913;-88
2022/02/10 16:16:33;;;;;;;;;;;12.00;54.20;;;;;;5066601;28;20323;-87
2022/02/10 16:18:48;;;;;;;;;;;12.00;54.00;;;;;;5075076;28;20007;-87
2022/02/10 16:21:26;;;;;;;;;;;11.80;55.00;;;;;;5055179;28;19921;-87
2022/02/10 16:23:59;;;;;;;;;;;11.70;54.90;;;;;;5055493;28;19990;-87
2022/02/10 16:26:34;;;;;;;;;;;11.70;54.90;;;;;;5046558;28;19955;-88
2022/02/10 16:29:02;;;;;;;;;;;11.60;54.80;;;;;;5064331;28;19908;-87
2022/02/10 16:31:27;;;;;;;;;;;11.40;55.00;;;;;;5076736;28;19952;-86
2022/02/10 16:34:07;;;;;;;;;;;11.40;55.60;;;;;;5048601;28;19934;-87
2022/02/10 16:36:56;;;;;;;;;;;11.40;55.70;;;;;;5043371;28;19982;-86
2022/02/10 16:39:53;;;;;;;;;;;11.20;55.80;;;;;;5067272;28;19908;-87
2022/02/10 16:42:19;;;;;;;;;;;11.20;56.30;;;;;;5054644;28;20643;-87
2022/02/10 16:44:51;;;;;;;;;;;11.20;56.40;;;;;;5048186;28;19943;-87
2022/02/10 16:47:22;;;;;;;;;;;11.20;56.90;;;;;;5054748;28;19909;-87
2022/02/10 16:50:02;;;;;;;;;;;11.10;56.90;;;;;;5053099;28;19916;-86
2022/02/10 16:52:35;;;;;;;;;;;11.20;57.20;;;;;;5047089;28;19916;-86
2022/02/10 16:55:16;;;;;;;;;;;11.20;57.10;;;;;;5037476;28;19920;-85
2022/02/10 17:01:11;;;;;;;;;;;11.00;57.70;;;;;;5046331;28;19916;-86
2022/02/10 17:18:09;;;;;;;;;;;11.40;58.30;;;;;;5062153;28;19916;-86
2022/02/10 17:20:54;;;;;;;;;;;11.40;58.10;;;;;;5042389;28;19926;-86
2022/02/10 17:29:37;;;;;;;;;;;11.50;58.90;;;;;;5068193;28;19909;-85
2022/02/10 17:41:21;;;;;;;;;;;11.00;59.40;;;;;;5069695;28;19916;-86
2022/02/10 17:45:54;;;;;;;;;;;10.60;62.50;;;;;;5089664;28;19913;-86
2022/02/10 17:53:50;;;;;;;;;;;10.20;64.90;;;;;;5056898;28;19959;-86
2022/02/10 17:56:16;;;;;;;;;;;10.10;65.20;;;;;;5055298;28;19975;-87
2022/02/10 17:58:41;;;;;;;;;;;10.10;65.10;;;;;;5056179;28;20023;-86
2022/02/10 18:01:09;;;;;;;;;;;10.10;65.50;;;;;;5089582;28;19962;-86
2022/02/10 18:03:35;;;;;;;;;;;10.10;65.70;;;;;;5056571;28;19909;-88
2022/02/10 18:06:22;;;;;;;;;;;9.90;67.00;;;;;;5088777;28;19940;-87
2022/02/10 18:14:33;;;;;;;;;;;9.50;68.70;;;;;;5089163;28;19909;-86
2022/02/10 18:20:33;;;;;;;;;;;9.20;69.70;;;;;;5053000;28;19909;-87
2022/02/10 18:26:18;;;;;;;;;;;9.20;70.60;;;;;;5058542;28;19919;-87
2022/02/10 18:29:05;;;;;;;;;;;9.10;69.90;;;;;;5054915;28;19954;-86
2022/02/10 19:01:59;;;;;;;;;;;9.20;71.80;;;;;;5073100;28;19908;-87
2022/02/10 19:09:45;;;;;;;;;;;9.80;70.90;;;;;;5073931;28;20011;-87
2022/02/10 19:12:31;;;;;;;;;;;9.70;70.90;;;;;;5073416;28;20285;-88
2022/02/10 19:15:07;;;;;;;;;;;9.80;71.60;;;;;;5056654;28;19931;-87
2022/02/10 19:17:33;;;;;;;;;;;9.90;71.00;;;;;;5056309;28;19912;-87
2022/02/10 19:19:59;;;;;;;;;;;10.00;70.50;;;;;;5056642;28;20392;-86
2022/02/10 19:22:25;;;;;;;;;;;9.80;70.60;;;;;;5056683;28;19940;-88
2022/02/10 19:24:53;;;;;;;;;;;9.60;71.80;;;;;;5057092;28;19937;-87
2022/02/10 19:27:26;;;;;;;;;;;9.40;72.30;;;;;;5057519;28;20419;-87
2022/02/10 19:29:57;;;;;;;;;;;9.40;73.60;;;;;;5073583;28;19912;-86
2022/02/10 19:32:25;;;;;;;;;;;9.40;73.80;;;;;;5057072;28;19912;-86
2022/02/10 19:34:58;;;;;;;;;;;9.10;73.50;;;;;;5056904;28;19908;-87
2022/02/10 19:37:51;;;;;;;;;;;8.80;74.40;;;;;;5057215;28;19931;-87
2022/02/10 19:40:36;;;;;;;;;;;8.90;74.50;;;;;;5068240;28;20006;-88
2022/02/10 19:43:14;;;;;;;;;;;9.00;74.30;;;;;;5055313;28;19996;-87
2022/02/10 19:45:43;;;;;;;;;;;8.90;74.00;;;;;;5091615;28;19912;-87
2022/02/10 19:48:40;;;;;;;;;;;8.90;74.70;;;;;;5097525;28;20288;-87
2022/02/10 19:51:11;;;;;;;;;;;8.80;75.50;;;;;;5096327;28;19961;-87
2022/02/10 19:53:37;;;;;;;;;;;8.80;75.50;;;;;;5089021;28;19912;-86
2022/02/10 19:56:03;;;;;;;;;;;9.00;75.60;;;;;;5073011;28;19908;-88
2022/02/10 19:58:30;;;;;;;;;;;8.80;75.00;;;;;;5073260;28;20270;-86
2022/02/10 20:01:01;;;;;;;;;;;8.80;75.60;;;;;;5057135;28;19916;-88
2022/02/10 20:03:28;;;;;;;;;;;8.70;75.70;;;;;;5057295;28;20012;-87
2022/02/10 20:05:55;;;;;;;;;;;8.70;76.30;;;;;;5055736;28;20365;-87
2022/02/10 20:08:22;;;;;;;;;;;8.70;75.60;;;;;;5072469;28;19915;-86
2022/02/10 20:10:54;;;;;;;;;;;8.90;76.00;;;;;;5055561;28;19919;-87
2022/02/10 20:13:24;;;;;;;;;;;8.90;75.20;;;;;;5072390;28;19991;-87
2022/02/10 20:15:51;;;;;;;;;;;8.80;75.00;;;;;;5073149;28;20341;-86
2022/02/10 20:18:26;;;;;;;;;;;8.70;76.20;;;;;;5090342;28;19908;-87
2022/02/10 20:20:57;;;;;;;;;;;8.70;75.80;;;;;;5072439;28;19912;-87
2022/02/10 20:23:24;;;;;;;;;;;8.10;75.60;;;;;;5068573;28;19909;-87
2022/02/10 20:25:55;;;;;;;;;;;7.50;78.50;;;;;;5089311;28;19973;-87
2022/02/10 20:28:28;;;;;;;;;;;7.20;79.50;;;;;;5055081;28;20309;-87
2022/02/10 20:30:57;;;;;;;;;;;7.10;81.10;;;;;;5072190;28;19916;-87
2022/02/10 20:33:28;;;;;;;;;;;7.10;82.10;;;;;;5072534;28;20378;-87
2022/02/10 20:35:57;;;;;;;;;;;7.40;81.80;;;;;;5083284;28;19909;-87
2022/02/10 20:38:23;;;;;;;;;;;7.70;80.60;;;;;;5085301;28;19909;-87
2022/02/10 20:40:57;;;;;;;;;;;7.70;79.50;;;;;;5068612;28;20453;-87
2022/02/10 20:43:23;;;;;;;;;;;7.40;80.70;;;;;;5035455;28;19915;-87
2022/02/10 20:46:01;;;;;;;;;;;7.40;80.60;;;;;;5054661;28;20355;-87
2022/02/10 20:48:29;;;;;;;;;;;7.50;81.50;;;;;;5071773;28;19909;-88
2022/02/10 20:50:57;;;;;;;;;;;7.50;81.60;;;;;;5071767;28;19992;-87
2022/02/10 20:53:27;;;;;;;;;;;7.50;82.10;;;;;;5088700;28;19909;-88
2022/02/10 20:55:54;;;;;;;;;;;7.50;82.70;;;;;;5088421;28;19908;-88
2022/02/10 20:58:21;;;;;;;;;;;7.80;83.10;;;;;;5089232;28;19998;-87
2022/02/10 21:00:49;;;;;;;;;;;8.00;82.50;;;;;;5088772;28;20324;-87
2022/02/10 21:03:15;;;;;;;;;;;8.20;81.30;;;;;;5054929;28;20263;-87
2022/02/10 21:05:43;;;;;;;;;;;8.30;80.50;;;;;;5105177;28;19912;-86
2022/02/10 21:08:33;;;;;;;;;;;8.30;80.50;;;;;;5109220;28;20015;-86
2022/02/10 21:10:57;;;;;;;;;;;8.20;80.80;;;;;;5078150;28;19919;-87
2022/02/10 21:13:24;;;;;;;;;;;8.40;81.20;;;;;;5095887;28;19908;-87
2022/02/10 21:16:01;;;;;;;;;;;8.30;80.30;;;;;;5061125;28;19919;-86
2022/02/10 21:18:40;;;;;;;;;;;8.50;81.70;;;;;;5078451;28;20435;-87
2022/02/10 21:21:21;;;;;;;;;;;8.40;81.00;;;;;;5061649;28;20382;-87
2022/02/10 21:24:00;;;;;;;;;;;8.30;81.10;;;;;;5061932;28;19909;-88
2022/02/10 21:26:32;;;;;;;;;;;8.30;81.00;;;;;;5061507;28;20345;-87
2022/02/10 21:29:01;;;;;;;;;;;8.20;80.80;;;;;;5061371;28;19908;-86
2022/02/10 21:31:27;;;;;;;;;;;8.20;81.80;;;;;;5078365;28;20313;-87
2022/02/10 21:34:07;;;;;;;;;;;8.10;81.40;;;;;;5061345;28;19909;-87
2022/02/10 21:56:23;;;;;;;;;;;7.70;84.50;;;;;;5077939;28;20274;-87
2022/02/10 22:20:29;;;;;;;;;;;8.00;84.00;;;;;;5037463;28;19909;-75
2022/02/10 22:23:07;;;;;;;;;;;7.90;84.20;;;;;;5055555;28;19909;-75
2022/02/10 22:25:35;;;;;;;;;;;7.90;83.20;;;;;;5055299;28;19919;-75
2022/02/10 22:28:10;;;;;;;;;;;7.80;84.80;;;;;;5037675;28;19909;-75
2022/02/10 22:30:50;;;;;;;;;;;7.90;84.80;;;;;;5037528;28;20008;-75
2022/02/10 22:33:41;;;;;;;;;;;7.90;84.80;;;;;;5021052;28;19909;-75
2022/02/10 22:36:09;;;;;;;;;;;7.90;85.40;;;;;;5054090;28;19935;-75
2022/02/10 22:38:36;;;;;;;;;;;7.90;84.80;;;;;;5037402;28;19909;-75
2022/02/10 22:41:08;;;;;;;;;;;7.80;84.80;;;;;;5055030;28;20303;-75
2022/02/10 22:43:35;;;;;;;;;;;7.70;84.50;;;;;;5055063;28;20422;-75
2022/02/10 22:46:01;;;;;;;;;;;7.70;85.90;;;;;;5037053;28;19916;-75
2022/02/10 22:48:26;;;;;;;;;;;7.60;85.90;;;;;;5020714;28;19930;-75
2022/02/10 22:50:52;;;;;;;;;;;7.40;86.40;;;;;;5020695;28;19909;-75
2022/02/10 22:53:18;;;;;;;;;;;7.30;86.00;;;;;;5036903;28;19916;-75
2022/02/10 22:55:43;;;;;;;;;;;7.00;87.70;;;;;;5036765;28;19909;-75
2022/02/10 22:58:09;;;;;;;;;;;6.80;88.90;;;;;;5036716;28;19934;-74
2022/02/10 23:00:36;;;;;;;;;;;7.00;89.40;;;;;;5036820;28;19913;-75
2022/02/10 23:03:02;;;;;;;;;;;6.90;87.80;;;;;;5054523;28;20339;-74
2022/02/10 23:05:28;;;;;;;;;;;6.80;89.70;;;;;;5036541;28;19912;-75
2022/02/10 23:07:57;;;;;;;;;;;6.70;89.60;;;;;;5036611;28;20284;-75
2022/02/10 23:10:47;;;;;;;;;;;6.50;90.40;;;;;;5036621;28;19939;-75
2022/02/10 23:13:11;;;;;;;;;;;6.40;90.50;;;;;;5035934;28;20344;-75
2022/02/10 23:15:38;;;;;;;;;;;6.50;91.20;;;;;;5053112;28;19999;-75
2022/02/10 23:18:12;;;;;;;;;;;6.70;91.20;;;;;;5036324;28;19913;-75
2022/02/10 23:20:38;;;;;;;;;;;6.70;90.70;;;;;;5054225;28;19909;-75
2022/02/10 23:23:05;;;;;;;;;;;6.50;90.60;;;;;;5052924;28;19916;-74
2022/02/10 23:25:32;;;;;;;;;;;6.40;91.50;;;;;;5036186;28;19954;-75
2022/02/10 23:27:59;;;;;;;;;;;6.30;91.60;;;;;;5036280;28;19913;-74
2022/02/10 23:30:25;;;;;;;;;;;6.40;92.50;;;;;;5035601;28;19916;-74
2022/02/10 23:32:54;;;;;;;;;;;6.30;92.30;;;;;;5053529;28;20268;-74
2022/02/10 23:36:24;;;;;;;;;;;6.30;93.20;;;;;;5036000;28;20004;-75
2022/02/10 23:38:29;;;;;;;;;;;6.30;92.90;;;;;;5035833;28;19968;-75
2022/02/10 23:43:23;;;;;;;;;;;6.20;94.70;;;;;;5053818;28;19967;-74
2022/02/10 23:45:49;;;;;;;;;;;6.20;94.90;;;;;;5035778;28;19941;-75
2022/02/10 23:48:15;;;;;;;;;;;6.10;96.10;;;;;;5019308;28;19995;-74
2022/02/10 23:50:41;;;;;;;;;;;6.20;97.00;;;;;;5035832;28;19959;-75
2022/02/10 23:53:07;;;;;;;;;;;6.30;96.80;;;;;;5018974;28;19917;-75
2022/02/10 23:55:36;;;;;;;;;;;6.30;97.20;;;;;;5019139;28;19909;-75
